首页
METAR-TAF:

METAR-TAF

机场 :

Rosh Pinna, 以色列

纬度: 32-58-48N, 经度: 035-34-12E, 海拔: 281米

当前天气观测

该预报发布于49分钟前的08:50 UTC
风速7节,风向,在西北东转东北之间变化
温度 28°C
湿度 35%
气压 1012 hPa
能见度10公里或以上
少量云层高于3500英尺

METAR: LLIB 220850Z 36007KT 310V070 9999 FEW035 28/11 Q1012

时间: 12:39 (09:39 UTC)

预报

该预报发布于4小时和33分钟前的05:06 UTC
预报有效从22日的 06点(UTC)到 23日的 06点(UTC)
风速6节,风向南转南东
能见度10公里或以上
1500米以下无云,无积雨云
几率 30%
从 22日的 09点(UTC)到 22日的 13点(UTC)
风速18节,风向多变,有时为28节阵风
能見度: 7000
少量云层高于7000英尺, 积雨云.
多云层高于10000英尺
雷暴, 雨
成为
从 22日的 13点(UTC)到 22日的 15点(UTC)
风速8节,风向西北
成为
从 22日的 17点(UTC)到 22日的 19点(UTC)
风速8节,风向东北
几率 30%
从 22日的 22点(UTC)到 23日的 06点(UTC)
风速15节,风向多变
能見度: 7000
少量云层高于7000英尺, 积雨云.
多云层高于10000英尺
雷暴, 雨

TAF: LLIB 220506Z 2206/2306 15006KT CAVOK PROB30 2209/2213 VRB18G28KT 7000 TSRA FEW070CB BKN100 BECMG 2213/2215 32008KT BECMG 2217/2219 04008KT PROB30 2222/2306 VRB15KT 7000 TSRA FEW070CB BKN100 TX29/2212Z TN20/2304Z

超过4000个机场的气象观测和天气预报(METAR&TAF报告)。

可查询的气象台以黄色和红色小点在地图上表示。

将鼠标移到小点上方,可查看气象台名称。

然后点击查看天气观测和预报。

如需切换地图:点击带黑十字的绿色按钮放大地图;点击带横线的绿色按钮缩小地图;或者点击绿色箭头查看邻近地区的地图。


METAR-TAF: